Terminal Aerodrome Forecast
Issued by NWS Wilmington, OH

Current Version | Previous Version | Text Only | Print | Product List | Glossary Off
Versions: 1 2 3 4 5 6 7 8 9 10 11 12 13 14

000
FTUS41 KILN 150500
TAFILN
TAF
KILN 150523Z 1506/1606 33014G22KT 5SM -RASN BR OVC012
     FM150700 34014G22KT 1SM -SN OVC006
     FM150900 34014G22KT 4SM -SN OVC008
     FM151300 33014G22KT P6SM OVC008
     FM151600 33014G20KT P6SM BKN025
     FM151900 32014G20KT P6SM BKN040
     FM152300 32008KT P6SM SCT040
     FM160100 VRB03KT P6SM SKC=

USA.gov is the U.S. government's official web portal to all federal, state and local government web resources and services.